หน้าหลัก
METAR-TAF:

METAR-TAF

ท่าอากาศยาน :

Nadi, ฟิจิ

ละติจูด: 17-45S, ลองจิจูด: 177-27E, ความสูง: 13 ม.

การสังเกตสภาพอากาศปัจจุบัน

รายงานได้ทำขึ้นเมื่อ 1 ชั่วโมงและ 10 นาทีที่แล้ว ณ เวลา 03:00 UTC
ลม 9 นอตจากตะวันตก/ตะวันตกเฉียงเหนือ
อุณหภูมิ 30°C
ความชื้น 70%
ความกดอากาศ 1009 hPa
ทัศนวิสัย 10 กม. หรือมากกว่า
มีเมฆน้อยที่ความสูง 3000 ฟุต

METAR: NFFN 250300Z 30009KT 9999 FEW030 30/24 Q1009 NOSIG

เวลา: 16:10 (04:10 UTC)

การพยากรณ์

รายงานได้ทำขึ้นเมื่อ 4 ชั่วโมงและ 48 นาทีที่แล้ว ณ เวลา 23:22 UTC
การพยากรณ์มีผลตั้งแต่วันที่ 25 ณ เวลา 00 UTC จนถึงวันที่ 25 ณ เวลา 24 UTC
ลม 10 นอตจากตะวันตก/ตะวันตกเฉียงเหนือ
ทัศนวิสัย 10 กม. หรือมากกว่า
มีเมฆกระจายเป็นบางส่วนที่ความสูง 2800 ฟุต
มีเมฆเป็นส่วนมากเว้นเป็นระยะที่ความสูง 4500 ฟุต
กำลังกลายเป็น
ตั้งแต่วันที่ 25 ณ เวลา 06 UTC จนถึงวันที่ 25 ณ เวลา 08 UTC
ลม 5 นอตจากตะวันออก/ตะวันออกเฉียงใต้
กำลังกลายเป็น
ตั้งแต่วันที่ 25 ณ เวลา 22 UTC จนถึงวันที่ 25 ณ เวลา 24 UTC
ลม 10 นอตจากตะวันตกเฉียงเหนือ

TAF: NFFN 242322Z 2500/2524 30010KT 9999 SCT028 BKN045 BECMG 2506/2508 12005KT BECMG 2522/2524 32010KT

สังเกตการณ์สภาพอากาศและพยากรณ์อากาศของสนามบินมากกว่า 4000 แห่ง (รายงาน METAR และ TAF).

สถานีที่ดูได้จะแสดงไว้ด้วยจุดสีเหลืองและสีแดงบนแผนที่.

เลื่อนเมาส์ไปเหนือจุดเพื่อดูชื่อสถานี.

แล้วคลิกเพื่อดูสังเกตการณ์และการพยากรณ์สภาพอากาศ.

ในการเปลี่ยนแผนที่: คลิกที่ปุ่มสีเขียวที่มีกากบาทสีดำเพื่อซูมเข้า; ที่ปุ่มสีเขียวที่มีขีดเพื่อซูมออก; หรือที่ลูกศรสีเขียวเพื่อไปยังแผนที่ที่อยู่ติดกัน.


METAR-TAF: